Terminal Aerodrome Forecast
Issued by NWS Omaha/Valley, NE

Home | Current Version | Previous Version | Text Only | Print | Product List | Glossary On
Versions: 1 2 3 4 5 6 7 8 9 10 11 12 13 14 15 16 17 18 19
000
FTUS43 KOAX 260520
TAFLNK
TAF
KLNK 260520Z 2606/2706 01005KT P6SM BKN250
     FM261000 03004KT P6SM OVC100 PROB30 2618/2621 4SM -SHRA OVC040
     FM262100 11008KT P6SM -SHRA VCTS OVC025CB
     FM270000 10006KT 6SM -SHRA OVC025=

USA.gov is the U.S. government's official web portal to all federal, state and local government web resources and services.